Terminal Aerodrome Forecast
Issued by NWS

Home | Current Version | Previous Version | Text Only | Print | Product List | Glossary On
Versions: 1 2 3 4 5 6 7 8 9 10 11 12 13 14 15 16 17 18 19 20 21 22 23
000
FTUS43 KDLH 220947 AAA
TAFHYR
TAF AMD
KHYR 220947Z 2210/2306 VRB03KT 1 1/2SM BR BKN015
      TEMPO 2210/2213 1/2SM FG BKN004
     FM221500 VRB04KT P6SM BKN025
     FM221800 24005KT P6SM BKN050
     FM230400 VRB04KT 5SM BR SCT050=

USA.gov is the U.S. government's official web portal to all federal, state and local government web resources and services.